Lublinek, Poland

1:53 PM CEST on July 07, 2015 (GMT +0200)
Ksawerow Village Area | | Change Station
CLOSE
Current Station
Personal Weather Station
Location: Ksawerów, WOJEWóDZTWO łóDZKIE
Elevation: 610 ft
Nearby Weather Stations

Elev 610 ft 51.67 °N, 19.41 °E | Updated 19 seconds ago

Clear
Clear
81.3 °F
Feels Like 80 °F
N
11.4
Wind Variable Wind from WSW
Gusts 12.3 mph

Today
High -- | Low -- °F
--% Chance of Precip.
Yesterday
High -- | Low -- °F
Precip. -- in
4:32 AM 9:01 PM
Waning Gibbous, 65% visible
Pressure 29.98 in
Visibility -9999.0 miles
Clouds
Heat Index 80 °F
Dew Point 41 °F
Humidity 24%
Rainfall 0.00 in
Snow Depth Not available.
UV 6.0 out of 12
Pollen Not available.
Air Quality Not available.
Flu Activity Not available.
METAR EPLL 071130Z 26008KT 220V320 CAVOK 28/08 Q1015

More Conditions Fewer Conditions

Pressure 29.98 in
Visibility -9999.0 miles
Clouds
Heat Index 80 °F
Dew Point 41 °F
Humidity 24%
Rainfall 0.00 in
Snow Depth Not available.
UV 6.0 out of 12
Pollen Not available.
Air Quality Not available.
Flu Activity Not available.
METAR EPLL 071130Z 26008KT 220V320 CAVOK 28/08 Q1015

More Conditions Fewer Conditions

10-Day Weather Forecast

×

Almanac

Astronomy

Jul. 07, 2015 Rise Set
Actual Time
Civil Twilight
Nautical Twilight
Astronomical Twilight
Moon
Length of Visible Light
Length of Day
Tomorrow will be .
, % of the Moon is Illuminated

Today's Extremes

Country Highs Country Lows

Community

WunderPhotos

Upload Photos

1,835,770 photos uploaded!

WunderBlogs® & News

Nearby

Air Quality

  Air Quality AQ Index Pollutant
Not available.

Snow Depth

Station Depth Elevation

Earthquake Activity

City Distance Mag. Time & Date
Minimum magnitude displayed is 2.5.

Coastal Water Temperatures

Place Temperature

Stations

Nearby Weather Stations

Station Location Temp. Windchill Dew Point Humidity Wind Precip. Elev Updated Type